createdAt,value
2018-10-06T00:00:18.400Z,96070.59
2018-10-06T00:02:48.130Z,96067.55
2018-10-06T00:05:17.074Z,96065.78
2018-10-06T00:07:46.058Z,96063.32
2018-10-06T00:10:15.326Z,96065.72
2018-10-06T00:12:44.822Z,96071.63
2018-10-06T00:15:14.092Z,96064.38
2018-10-06T00:17:43.118Z,96066.98
2018-10-06T00:20:12.031Z,96056.95
2018-10-06T00:22:41.391Z,96056.88
2018-10-06T00:25:10.210Z,96060.48
2018-10-06T00:27:50.898Z,96061.08
2018-10-06T00:30:20.596Z,96059.73
2018-10-06T00:32:49.888Z,96058.19
2018-10-06T00:35:18.791Z,96056.78
2018-10-06T00:37:48.055Z,96055.48
2018-10-06T00:40:17.419Z,96057.66
2018-10-06T00:42:46.226Z,96054.42
2018-10-06T00:45:15.551Z,96058.19
2018-10-06T00:47:44.686Z,96058.11
2018-10-06T00:50:13.739Z,96062.13
2018-10-06T00:52:42.603Z,96057.39
2018-10-06T00:55:11.735Z,96054.64
2018-10-06T00:57:40.662Z,96050.28
2018-10-06T01:00:09.842Z,96053.30
2018-10-06T01:02:38.866Z,96052.20
2018-10-06T01:05:07.948Z,96057.31
2018-10-06T01:07:36.842Z,96055.11
2018-10-06T01:10:06.742Z,96050.40
2018-10-06T01:12:35.426Z,96051.97
2018-10-06T01:15:04.392Z,96046.06
2018-10-06T01:17:33.548Z,96054.73
2018-10-06T01:20:03.642Z,96061.95
2018-10-06T01:22:32.750Z,96065.20
2018-10-06T01:25:02.779Z,96069.59
2018-10-06T01:27:31.968Z,96058.03
2018-10-06T01:30:00.699Z,96059.67
2018-10-06T01:32:29.759Z,96061.30
2018-10-06T01:34:58.611Z,96056.24
2018-10-06T01:37:28.200Z,96053.69
2018-10-06T01:39:57.475Z,96046.92
2018-10-06T01:42:26.415Z,96049.81
2018-10-06T01:44:55.446Z,96049.06
2018-10-06T01:47:24.257Z,96051.72
2018-10-06T01:49:53.586Z,96051.61
2018-10-06T01:52:22.494Z,96056.06
2018-10-06T01:54:51.512Z,96053.64
2018-10-06T01:57:20.514Z,96049.62
2018-10-06T01:59:49.552Z,96048.02
2018-10-06T02:02:19.770Z,96056.68
2018-10-06T02:04:48.878Z,96056.51
2018-10-06T02:07:17.914Z,96058.30
2018-10-06T02:09:47.060Z,96058.48
2018-10-06T02:12:16.336Z,96062.74
2018-10-06T02:14:45.322Z,96060.36
2018-10-06T02:17:14.483Z,96060.10
2018-10-06T02:19:43.415Z,96060.16
2018-10-06T02:22:12.243Z,96060.57
2018-10-06T02:24:41.411Z,96060.32
2018-10-06T02:27:10.502Z,96062.60
2018-10-06T02:29:39.383Z,96056.95
2018-10-06T02:32:08.711Z,96061.11
2018-10-06T02:34:37.806Z,96056.12
2018-10-06T02:37:06.870Z,96044.84
2018-10-06T02:39:36.541Z,96047.06
2018-10-06T02:42:05.553Z,96050.47
2018-10-06T02:44:34.370Z,96051.33
2018-10-06T02:47:03.421Z,96057.72
2018-10-06T02:49:32.915Z,96059.16
2018-10-06T02:52:02.247Z,96056.25
2018-10-06T02:54:31.171Z,96060.66
2018-10-06T02:57:00.360Z,96054.04
2018-10-06T02:59:29.390Z,96051.93
2018-10-06T03:01:58.038Z,96041.91
2018-10-06T03:04:27.147Z,96049.84
2018-10-06T03:06:56.542Z,96051.31
2018-10-06T03:09:25.443Z,96054.48
2018-10-06T03:11:54.179Z,96053.11
2018-10-06T03:14:23.300Z,96053.19
2018-10-06T03:16:53.195Z,96049.05
2018-10-06T03:19:22.324Z,96044.24
2018-10-06T03:21:51.539Z,96043.13
2018-10-06T03:24:20.237Z,96042.77
2018-10-06T03:26:49.533Z,96040.06
2018-10-06T03:29:18.762Z,96045.28
2018-10-06T03:31:47.740Z,96045.14
2018-10-06T03:34:16.479Z,96050.97
2018-10-06T03:36:45.675Z,96052.45
2018-10-06T03:39:14.706Z,96050.97
2018-10-06T03:41:43.753Z,96046.59
2018-10-06T03:44:13.606Z,96052.33
2018-10-06T03:46:42.508Z,96042.47
2018-10-06T03:49:11.406Z,96032.05
2018-10-06T03:51:40.444Z,96042.63
2018-10-06T03:54:11.530Z,96037.81
2018-10-06T03:56:42.091Z,96039.69
2018-10-06T03:59:11.227Z,96039.14
2018-10-06T04:01:40.275Z,96038.14
2018-10-06T04:04:10.231Z,96036.28
2018-10-06T04:06:39.163Z,96033.95
2018-10-06T04:09:09.505Z,96037.86
2018-10-06T04:11:39.212Z,96029.28
2018-10-06T04:14:08.234Z,96028.83
2018-10-06T04:16:37.055Z,96029.02
2018-10-06T04:19:06.930Z,96031.77
2018-10-06T04:21:46.557Z,96032.86
2018-10-06T04:24:16.259Z,96032.11
2018-10-06T04:26:45.163Z,96029.37
2018-10-06T04:29:14.279Z,96033.72
2018-10-06T04:31:43.290Z,96029.09
2018-10-06T04:34:12.251Z,96029.69
2018-10-06T04:36:41.271Z,96029.36
2018-10-06T04:39:12.043Z,96020.73
2018-10-06T04:41:41.080Z,96024.98
2018-10-06T04:44:10.503Z,96011.16
2018-10-06T04:46:40.228Z,96015.16
2018-10-06T04:49:09.241Z,96013.01
2018-10-06T04:51:38.284Z,96026.92
2018-10-06T04:54:07.451Z,96026.19
2018-10-06T04:56:36.461Z,96026.83
2018-10-06T04:59:05.650Z,96020.80
2018-10-06T05:01:34.767Z,96025.27
2018-10-06T05:04:03.692Z,96026.33
2018-10-06T05:06:33.338Z,96027.56
2018-10-06T05:09:02.315Z,96026.58
2018-10-06T05:11:31.264Z,96027.48
2018-10-06T05:14:00.491Z,96027.45
2018-10-06T05:16:29.257Z,96027.89
2018-10-06T05:18:58.340Z,96022.20
2018-10-06T05:21:27.527Z,96026.48
2018-10-06T05:23:56.966Z,96029.75
2018-10-06T05:26:25.926Z,96033.16
2018-10-06T05:28:55.768Z,96037.01
2018-10-06T05:31:25.550Z,96022.22
2018-10-06T05:33:54.676Z,96023.22
2018-10-06T05:36:23.798Z,96024.41
2018-10-06T05:38:52.538Z,96030.78
2018-10-06T05:41:21.342Z,96029.83
2018-10-06T05:43:50.580Z,96029.28
2018-10-06T05:46:19.813Z,96025.02
2018-10-06T05:48:48.989Z,96027.27
2018-10-06T05:51:18.072Z,96018.48
2018-10-06T05:53:46.991Z,96024.19
2018-10-06T05:56:15.955Z,96023.46
2018-10-06T05:58:45.499Z,96028.28
2018-10-06T06:01:14.656Z,96033.67
2018-10-06T06:03:43.589Z,96035.84
2018-10-06T06:06:13.271Z,96037.11
2018-10-06T06:08:42.457Z,96035.13
2018-10-06T06:11:11.475Z,96034.45
2018-10-06T06:13:40.794Z,96036.12
2018-10-06T06:16:09.771Z,96042.82
2018-10-06T06:18:38.772Z,96042.48
2018-10-06T06:21:07.983Z,96040.19
2018-10-06T06:23:37.068Z,96045.79
2018-10-06T06:26:05.918Z,96054.39
2018-10-06T06:28:35.413Z,96051.83
2018-10-06T06:31:04.677Z,96051.83
2018-10-06T06:33:33.730Z,96049.41
2018-10-06T06:36:02.954Z,96052.92
2018-10-06T06:38:31.842Z,96051.80
2018-10-06T06:41:00.835Z,96054.78
2018-10-06T06:43:30.297Z,96054.05
2018-10-06T06:45:59.472Z,96051.51
2018-10-06T06:48:28.691Z,96053.00
2018-10-06T06:50:58.063Z,96051.00
2018-10-06T06:53:27.126Z,96052.52
2018-10-06T06:55:56.238Z,96051.13
2018-10-06T06:58:25.995Z,96056.66
2018-10-06T07:00:54.949Z,96053.42
2018-10-06T07:03:23.834Z,96052.30
2018-10-06T07:05:52.815Z,96047.77
2018-10-06T07:08:21.516Z,96046.77
2018-10-06T07:10:51.028Z,96049.64
2018-10-06T07:13:20.262Z,96054.05
2018-10-06T07:15:49.035Z,96047.50
2018-10-06T07:18:17.953Z,96054.77
2018-10-06T07:20:47.330Z,96049.88
2018-10-06T07:23:16.436Z,96056.89
2018-10-06T07:25:45.708Z,96051.25
2018-10-06T07:28:15.288Z,96050.11
2018-10-06T07:30:44.771Z,96043.10
2018-10-06T07:33:13.890Z,96040.96
2018-10-06T07:35:43.189Z,96042.24
2018-10-06T07:38:12.228Z,96044.48
2018-10-06T07:40:41.083Z,96040.02
2018-10-06T07:43:11.204Z,96039.08
2018-10-06T07:45:40.054Z,96042.60
2018-10-06T07:48:09.618Z,96038.33
2018-10-06T07:50:38.871Z,96040.59
2018-10-06T07:53:08.152Z,96035.17
2018-10-06T07:55:37.283Z,96028.87
2018-10-06T07:58:06.321Z,96032.88
2018-10-06T08:00:35.355Z,96030.33
2018-10-06T08:03:04.311Z,96022.27
2018-10-06T08:05:33.251Z,96026.69
2018-10-06T08:08:02.199Z,96019.28
2018-10-06T08:10:31.138Z,96025.22
2018-10-06T08:13:00.198Z,96013.38
2018-10-06T08:15:29.393Z,96017.04
2018-10-06T08:17:58.351Z,96008.80
2018-10-06T08:20:27.634Z,96012.89
2018-10-06T08:22:56.787Z,96003.80
2018-10-06T08:25:27.359Z,96001.92
2018-10-06T08:27:56.628Z,96002.73
2018-10-06T08:30:25.608Z,95993.78
2018-10-06T08:32:55.732Z,95990.45
2018-10-06T08:35:24.834Z,95997.02
2018-10-06T08:37:53.902Z,95995.36
2018-10-06T08:40:23.103Z,95995.05
2018-10-06T08:42:52.375Z,95987.83
2018-10-06T08:45:21.298Z,95978.39
2018-10-06T08:47:50.484Z,95984.05
2018-10-06T08:50:19.727Z,95973.56
2018-10-06T08:52:48.600Z,95962.84
2018-10-06T08:55:17.595Z,95962.06
2018-10-06T08:57:46.671Z,95953.13
2018-10-06T09:00:15.575Z,95949.96
2018-10-06T09:02:44.593Z,95952.34
2018-10-06T09:05:13.707Z,95948.13
2018-10-06T09:07:42.539Z,95937.07
2018-10-06T09:10:12.788Z,95946.09
2018-10-06T09:12:42.118Z,95939.73
2018-10-06T09:15:11.624Z,95940.49
2018-10-06T09:17:40.818Z,95937.44
2018-10-06T09:20:10.130Z,95935.06
2018-10-06T09:22:39.490Z,95927.58
2018-10-06T09:25:08.527Z,95927.97
2018-10-06T09:27:37.802Z,95932.39
2018-10-06T09:30:06.699Z,95923.91
2018-10-06T09:32:35.789Z,95923.02
2018-10-06T09:35:05.006Z,95913.88
2018-10-06T09:37:33.789Z,95910.72
2018-10-06T09:40:02.877Z,95899.03
2018-10-06T09:42:32.903Z,95902.66
2018-10-06T09:45:02.092Z,95893.70
2018-10-06T09:47:31.646Z,95893.11
2018-10-06T09:50:01.310Z,95891.42
2018-10-06T09:52:30.410Z,95885.46
2018-10-06T09:54:59.282Z,95884.58
2018-10-06T09:57:28.395Z,95874.26
2018-10-06T09:59:57.184Z,95873.62
2018-10-06T10:02:31.118Z,95869.72
2018-10-06T10:05:06.051Z,95867.31
2018-10-06T10:07:35.971Z,95857.83
2018-10-06T10:10:05.589Z,95858.47
2018-10-06T10:12:34.501Z,95853.42
2018-10-06T10:15:03.651Z,95851.64
2018-10-06T10:17:32.738Z,95847.36
2018-10-06T10:20:01.638Z,95840.78
2018-10-06T10:22:30.928Z,95841.13
2018-10-06T10:25:00.429Z,95831.85
2018-10-06T10:27:29.279Z,95825.18
2018-10-06T10:29:58.550Z,95818.27
2018-10-06T10:32:27.428Z,95810.77
2018-10-06T10:34:56.516Z,95808.23
2018-10-06T10:37:25.594Z,95802.27
2018-10-06T10:39:54.503Z,95802.09
2018-10-06T10:42:24.223Z,95796.08
2018-10-06T10:44:53.438Z,95793.71
2018-10-06T10:47:22.402Z,95785.56
2018-10-06T10:49:51.698Z,95776.95
2018-10-06T10:52:20.889Z,95771.82
2018-10-06T10:54:50.087Z,95765.77
2018-10-06T10:57:18.897Z,95763.16
2018-10-06T10:59:48.056Z,95757.38
2018-10-06T11:02:16.642Z,95755.86
2018-10-06T11:04:45.649Z,95757.83
2018-10-06T11:07:14.693Z,95744.06
2018-10-06T11:09:43.774Z,95741.96
2018-10-06T11:12:13.167Z,95738.11
2018-10-06T11:14:42.467Z,95736.02
2018-10-06T11:17:11.329Z,95738.05
2018-10-06T11:19:40.306Z,95726.98
2018-10-06T11:22:09.323Z,95726.70
2018-10-06T11:24:38.436Z,95723.66
2018-10-06T11:27:07.252Z,95713.31
2018-10-06T11:29:36.566Z,95705.46
2018-10-06T11:32:06.150Z,95702.01
2018-10-06T11:34:35.254Z,95691.40
2018-10-06T11:37:05.024Z,95686.83
2018-10-06T11:39:34.108Z,95686.59
2018-10-06T11:42:03.871Z,95690.65
2018-10-06T11:44:33.006Z,95684.83
2018-10-06T11:47:02.997Z,95674.55
2018-10-06T11:49:31.770Z,95676.05
2018-10-06T11:52:00.987Z,95671.27
2018-10-06T11:54:29.915Z,95674.30
2018-10-06T11:56:58.918Z,95670.88
2018-10-06T11:59:28.271Z,95658.59
2018-10-06T12:01:57.167Z,95649.94
2018-10-06T12:04:26.370Z,95643.48
2018-10-06T12:06:55.293Z,95639.70
2018-10-06T12:09:24.442Z,95633.58
2018-10-06T12:11:53.808Z,95631.84
2018-10-06T12:14:22.977Z,95636.13
2018-10-06T12:16:52.642Z,95631.78
2018-10-06T12:19:21.707Z,95630.02
2018-10-06T12:21:50.883Z,95631.34
2018-10-06T12:24:19.851Z,95622.06
2018-10-06T12:26:48.820Z,95615.19
2018-10-06T12:29:17.622Z,95626.23
2018-10-06T12:31:46.735Z,95613.73
2018-10-06T12:34:16.352Z,95603.41
2018-10-06T12:36:45.364Z,95605.64
2018-10-06T12:39:14.431Z,95606.89
2018-10-06T12:41:43.481Z,95597.01
2018-10-06T12:44:12.850Z,95595.80
2018-10-06T12:46:41.931Z,95590.35
2018-10-06T12:49:10.925Z,95585.63
2018-10-06T12:51:40.239Z,95583.55
2018-10-06T12:54:09.428Z,95585.70
2018-10-06T12:56:38.507Z,95572.79
2018-10-06T12:59:07.775Z,95570.22
2018-10-06T13:01:36.667Z,95570.50
2018-10-06T13:04:05.815Z,95587.87
2018-10-06T13:06:34.734Z,95559.55
2018-10-06T13:09:04.391Z,95553.15
2018-10-06T13:11:33.351Z,95555.08
2018-10-06T13:14:02.642Z,95560.67
2018-10-06T13:16:31.710Z,95557.73
2018-10-06T13:19:00.567Z,95550.27
2018-10-06T13:21:29.624Z,95543.44
2018-10-06T13:23:59.107Z,95546.03
2018-10-06T13:26:28.298Z,95545.91
2018-10-06T13:28:57.510Z,95535.28
2018-10-06T13:31:26.804Z,95527.13
2018-10-06T13:33:56.839Z,95524.76
2018-10-06T13:36:25.986Z,95540.96
2018-10-06T13:38:55.154Z,95524.02
2018-10-06T13:41:24.218Z,95514.52
2018-10-06T13:43:53.565Z,95509.34
2018-10-06T13:46:22.674Z,95519.60
2018-10-06T13:48:52.921Z,95530.62
2018-10-06T13:51:22.241Z,95500.88
2018-10-06T13:53:51.478Z,95523.57
2018-10-06T13:56:20.594Z,95515.91
2018-10-06T13:58:49.688Z,95503.97
2018-10-06T14:01:18.926Z,95510.05
2018-10-06T14:03:48.297Z,95511.58
2018-10-06T14:06:17.659Z,95504.14
2018-10-06T14:08:46.845Z,95503.03
2018-10-06T14:11:15.974Z,95483.89
2018-10-06T14:13:45.555Z,95501.75
2018-10-06T14:16:14.855Z,95507.62
2018-10-06T14:18:44.159Z,95498.29
2018-10-06T14:21:14.438Z,95508.19
2018-10-06T14:23:43.947Z,95502.11
2018-10-06T14:26:13.045Z,95499.81
2018-10-06T14:28:42.279Z,95506.93
2018-10-06T14:31:11.831Z,95498.70
2018-10-06T14:33:40.770Z,95492.36
2018-10-06T14:36:09.783Z,95482.73
2018-10-06T14:38:38.942Z,95487.33
2018-10-06T14:41:08.071Z,95484.81
2018-10-06T14:43:37.263Z,95488.49
2018-10-06T14:46:06.607Z,95482.03
2018-10-06T14:48:35.961Z,95476.86
2018-10-06T14:51:04.980Z,95486.61
2018-10-06T14:53:34.999Z,95483.83
2018-10-06T14:56:04.174Z,95476.14
2018-10-06T14:58:33.178Z,95476.54
2018-10-06T15:01:02.299Z,95467.45
2018-10-06T15:03:31.413Z,95470.02
2018-10-06T15:06:00.667Z,95476.45
2018-10-06T15:08:30.086Z,95479.27
2018-10-06T15:10:59.272Z,95480.92
2018-10-06T15:13:28.358Z,95481.80
2018-10-06T15:15:57.636Z,95474.11
2018-10-06T15:18:26.733Z,95479.92
2018-10-06T15:20:55.759Z,95472.34
2018-10-06T15:23:25.094Z,95472.46
2018-10-06T15:25:54.368Z,95484.36
2018-10-06T15:28:23.639Z,95470.68
2018-10-06T15:30:53.107Z,95478.14
2018-10-06T15:33:22.214Z,95468.15
2018-10-06T15:35:51.310Z,95461.67
2018-10-06T15:38:21.319Z,95474.92
2018-10-06T15:40:50.432Z,95468.98
2018-10-06T15:43:19.482Z,95462.64
2018-10-06T15:45:48.735Z,95458.97
2018-10-06T15:48:17.818Z,95454.04
2018-10-06T15:50:46.958Z,95456.80
2018-10-06T15:53:16.174Z,95462.34
2018-10-06T15:55:45.335Z,95451.20
2018-10-06T15:58:14.442Z,95456.14
2018-10-06T16:00:43.778Z,95454.72
2018-10-06T16:03:12.953Z,95463.29
2018-10-06T16:05:42.087Z,95463.50
2018-10-06T16:08:11.097Z,95470.05
2018-10-06T16:10:40.247Z,95457.27
2018-10-06T16:13:09.263Z,95473.23
2018-10-06T16:15:38.623Z,95470.65
2018-10-06T16:18:07.712Z,95464.56
2018-10-06T16:20:36.763Z,95465.66
2018-10-06T16:23:06.350Z,95468.42
2018-10-06T16:25:35.423Z,95459.56
2018-10-06T16:28:04.515Z,95461.67
2018-10-06T16:30:33.499Z,95469.83
2018-10-06T16:33:02.430Z,95464.23
2018-10-06T16:35:31.599Z,95463.36
2018-10-06T16:38:00.719Z,95470.77
2018-10-06T16:40:29.918Z,95483.34
2018-10-06T16:42:59.060Z,95466.40
2018-10-06T16:45:28.198Z,95469.00
2018-10-06T16:47:57.323Z,95467.30
2018-10-06T16:50:26.632Z,95461.98
2018-10-06T16:52:55.859Z,95473.92
2018-10-06T16:55:24.739Z,95463.83
2018-10-06T16:57:53.794Z,95466.28
2018-10-06T17:00:23.127Z,95464.89
2018-10-06T17:02:52.390Z,95462.97
2018-10-06T17:05:21.474Z,95468.20
2018-10-06T17:07:50.751Z,95463.64
2018-10-06T17:10:19.956Z,95464.99
2018-10-06T17:12:49.109Z,95463.55
2018-10-06T17:15:18.502Z,95468.09
2018-10-06T17:17:47.595Z,95462.16
2018-10-06T17:20:16.651Z,95469.59
2018-10-06T17:22:46.051Z,95463.98
2018-10-06T17:25:15.191Z,95470.58
2018-10-06T17:27:44.271Z,95464.86
2018-10-06T17:30:13.588Z,95471.23
2018-10-06T17:32:42.825Z,95469.56
2018-10-06T17:35:11.951Z,95480.53
2018-10-06T17:37:41.011Z,95487.38
2018-10-06T17:40:10.161Z,95482.74
2018-10-06T17:42:39.381Z,95505.32
2018-10-06T17:45:08.635Z,95473.44
2018-10-06T17:47:37.771Z,95491.30
2018-10-06T17:50:07.521Z,95485.89
2018-10-06T17:52:36.533Z,95493.11
2018-10-06T17:55:05.622Z,95489.06
2018-10-06T17:57:35.132Z,95487.94
2018-10-06T18:00:04.414Z,95500.17
2018-10-06T18:02:33.576Z,95497.19
2018-10-06T18:05:02.876Z,95500.20
2018-10-06T18:07:31.635Z,95492.42
2018-10-06T18:10:00.737Z,95484.38
2018-10-06T18:12:30.199Z,95483.50
2018-10-06T18:14:59.480Z,95495.98
2018-10-06T18:17:28.782Z,95488.77
2018-10-06T18:19:58.260Z,95485.07
2018-10-06T18:22:27.270Z,95488.77
2018-10-06T18:24:56.551Z,95483.31
2018-10-06T18:27:25.508Z,95487.58
2018-10-06T18:29:54.670Z,95486.28
2018-10-06T18:32:24.051Z,95486.84
2018-10-06T18:34:53.003Z,95483.95
2018-10-06T18:37:22.178Z,95482.50
2018-10-06T18:39:51.352Z,95486.15
2018-10-06T18:42:20.647Z,95486.99
2018-10-06T18:44:49.835Z,95502.06
2018-10-06T18:47:18.880Z,95501.20
2018-10-06T18:49:48.439Z,95500.66
2018-10-06T18:52:17.238Z,95496.67
2018-10-06T18:54:46.138Z,95495.02
2018-10-06T18:57:15.364Z,95495.54
2018-10-06T18:59:45.430Z,95503.20
2018-10-06T19:02:14.322Z,95510.50
2018-10-06T19:04:43.700Z,95522.05
2018-10-06T19:07:12.658Z,95500.16
2018-10-06T19:09:42.495Z,95492.70
2018-10-06T19:12:11.875Z,95501.34
2018-10-06T19:14:40.929Z,95500.93
2018-10-06T19:17:09.902Z,95492.09
2018-10-06T19:19:39.131Z,95500.53
2018-10-06T19:22:08.233Z,95492.18
2018-10-06T19:24:37.247Z,95495.87
2018-10-06T19:27:06.802Z,95501.56
2018-10-06T19:29:35.867Z,95507.70
2018-10-06T19:32:05.022Z,95513.67
2018-10-06T19:34:35.332Z,95502.81
2018-10-06T19:37:04.239Z,95503.59
2018-10-06T19:39:34.019Z,95503.32
2018-10-06T19:42:03.219Z,95492.80
2018-10-06T19:44:32.463Z,95492.97
2018-10-06T19:47:01.806Z,95497.45
2018-10-06T19:49:30.923Z,95492.27
2018-10-06T19:52:00.078Z,95500.38
2018-10-06T19:54:29.098Z,95492.89
2018-10-06T19:56:58.223Z,95490.91
2018-10-06T19:59:27.468Z,95503.02
2018-10-06T20:01:56.691Z,95499.17
2018-10-06T20:04:25.791Z,95497.20
2018-10-06T20:06:55.097Z,95505.00
2018-10-06T20:09:24.243Z,95501.03
2018-10-06T20:11:53.649Z,95494.45
2018-10-06T20:14:23.295Z,95497.52
2018-10-06T20:16:53.247Z,95492.50
2018-10-06T20:19:23.576Z,95496.16
2018-10-06T20:21:52.662Z,95497.53
2018-10-06T20:24:24.113Z,95492.95
2018-10-06T20:26:55.102Z,95491.73
2018-10-06T20:29:24.188Z,95501.85
2018-10-06T20:31:53.796Z,95493.89
2018-10-06T20:34:22.879Z,95490.23
2018-10-06T20:36:52.067Z,95489.18
2018-10-06T20:39:21.142Z,95487.03
2018-10-06T20:41:50.653Z,95483.80
2018-10-06T20:44:19.653Z,95484.57
2018-10-06T20:46:48.788Z,95482.59
2018-10-06T20:49:18.939Z,95474.49
2018-10-06T20:51:47.990Z,95483.06
2018-10-06T20:54:17.308Z,95485.98
2018-10-06T20:56:46.935Z,95489.05
2018-10-06T20:59:16.191Z,95488.72
2018-10-06T21:01:45.217Z,95492.23
2018-10-06T21:04:14.763Z,95482.16
2018-10-06T21:06:43.857Z,95490.57
2018-10-06T21:09:13.876Z,95480.78
2018-10-06T21:11:43.602Z,95478.63
2018-10-06T21:14:12.845Z,95476.36
2018-10-06T21:16:42.020Z,95473.29
2018-10-06T21:19:11.283Z,95468.39
2018-10-06T21:21:40.617Z,95467.63
2018-10-06T21:24:11.016Z,95484.73
2018-10-06T21:26:40.559Z,95468.83
2018-10-06T21:29:09.947Z,95467.17
2018-10-06T21:31:39.616Z,95463.94
2018-10-06T21:34:08.929Z,95462.72
2018-10-06T21:36:38.167Z,95468.69
2018-10-06T21:39:08.871Z,95464.85
2018-10-06T21:41:41.554Z,95466.70
2018-10-06T21:44:10.308Z,95467.59
2018-10-06T21:46:39.326Z,95460.88
2018-10-06T21:49:08.974Z,95463.02
2018-10-06T21:51:38.057Z,95464.84
2018-10-06T21:54:07.140Z,95458.45
2018-10-06T21:56:36.328Z,95462.58
2018-10-06T21:59:05.462Z,95457.67
2018-10-06T22:01:35.334Z,95461.97
2018-10-06T22:04:05.062Z,95456.92
2018-10-06T22:06:34.381Z,95453.41
2018-10-06T22:09:04.651Z,95457.55
2018-10-06T22:11:33.759Z,95459.66
2018-10-06T22:14:02.620Z,95456.45
2018-10-06T22:16:32.399Z,95456.16
2018-10-06T22:19:01.307Z,95454.92
2018-10-06T22:21:30.166Z,95467.02
2018-10-06T22:23:59.279Z,95459.05
2018-10-06T22:26:28.483Z,95452.95
2018-10-06T22:28:57.440Z,95450.96
2018-10-06T22:31:26.421Z,95456.47
2018-10-06T22:33:55.859Z,95454.16
2018-10-06T22:36:24.927Z,95450.95
2018-10-06T22:38:54.019Z,95449.89
2018-10-06T22:41:23.768Z,95451.58
2018-10-06T22:43:52.819Z,95453.87
2018-10-06T22:46:21.829Z,95455.23
2018-10-06T22:48:51.144Z,95456.59
2018-10-06T22:51:20.194Z,95457.67
2018-10-06T22:53:49.198Z,95463.17
2018-10-06T22:56:18.530Z,95450.63
2018-10-06T22:58:47.891Z,95460.84
2018-10-06T23:01:16.851Z,95462.07
2018-10-06T23:03:46.382Z,95465.87
2018-10-06T23:06:15.611Z,95466.47
2018-10-06T23:08:44.783Z,95461.27
2018-10-06T23:11:13.910Z,95467.68
2018-10-06T23:13:42.924Z,95452.08
2018-10-06T23:16:12.087Z,95460.75
2018-10-06T23:18:41.331Z,95459.85
2018-10-06T23:21:10.570Z,95456.92
2018-10-06T23:23:39.382Z,95464.53
2018-10-06T23:26:09.302Z,95465.73
2018-10-06T23:28:38.243Z,95462.23
2018-10-06T23:31:07.121Z,95464.48
2018-10-06T23:33:36.947Z,95466.66
2018-10-06T23:36:05.722Z,95470.28
2018-10-06T23:38:34.630Z,95474.84
2018-10-06T23:41:03.506Z,95475.59
2018-10-06T23:43:32.170Z,95475.25
2018-10-06T23:46:00.948Z,95469.33
2018-10-06T23:48:30.180Z,95474.34
2018-10-06T23:50:59.809Z,95455.91
2018-10-06T23:53:28.638Z,95451.02
2018-10-06T23:55:58.571Z,95450.56
2018-10-06T23:58:27.966Z,95455.25
